sensor_id;sensor_type;location;lat;lon;timestamp;P1;durP1;ratioP1;P2;durP2;ratioP2
4563;SDS011;2294;51.818;8.484;2024-01-10T00:01:46;7.60;;;3.60;;
4563;SDS011;2294;51.818;8.484;2024-01-10T00:04:14;7.70;;;3.30;;
4563;SDS011;2294;51.818;8.484;2024-01-10T00:06:42;13.63;;;4.57;;
4563;SDS011;2294;51.818;8.484;2024-01-10T00:09:09;11.30;;;4.90;;
4563;SDS011;2294;51.818;8.484;2024-01-10T00:11:37;5.10;;;2.70;;
4563;SDS011;2294;51.818;8.484;2024-01-10T00:14:04;9.30;;;4.03;;
4563;SDS011;2294;51.818;8.484;2024-01-10T00:16:31;8.53;;;5.07;;
4563;SDS011;2294;51.818;8.484;2024-01-10T00:18:59;8.40;;;4.50;;
4563;SDS011;2294;51.818;8.484;2024-01-10T00:21:27;11.80;;;4.17;;
4563;SDS011;2294;51.818;8.484;2024-01-10T00:23:54;9.00;;;3.90;;
4563;SDS011;2294;51.818;8.484;2024-01-10T00:26:22;15.47;;;4.33;;
4563;SDS011;2294;51.818;8.484;2024-01-10T00:28:49;8.17;;;4.00;;
4563;SDS011;2294;51.818;8.484;2024-01-10T00:31:16;6.43;;;3.40;;
4563;SDS011;2294;51.818;8.484;2024-01-10T00:33:44;5.67;;;3.43;;
4563;SDS011;2294;51.818;8.484;2024-01-10T00:36:11;9.03;;;4.40;;
4563;SDS011;2294;51.818;8.484;2024-01-10T00:38:39;8.97;;;4.73;;
4563;SDS011;2294;51.818;8.484;2024-01-10T00:41:07;8.30;;;3.73;;
4563;SDS011;2294;51.818;8.484;2024-01-10T00:43:34;8.33;;;3.97;;
4563;SDS011;2294;51.818;8.484;2024-01-10T00:46:01;11.67;;;4.63;;
4563;SDS011;2294;51.818;8.484;2024-01-10T00:48:28;8.27;;;4.33;;
4563;SDS011;2294;51.818;8.484;2024-01-10T00:50:56;7.87;;;4.70;;
4563;SDS011;2294;51.818;8.484;2024-01-10T00:53:24;10.57;;;4.63;;
4563;SDS011;2294;51.818;8.484;2024-01-10T00:55:52;10.33;;;4.20;;
4563;SDS011;2294;51.818;8.484;2024-01-10T00:58:19;12.60;;;4.80;;
4563;SDS011;2294;51.818;8.484;2024-01-10T01:00:46;8.07;;;4.20;;
4563;SDS011;2294;51.818;8.484;2024-01-10T01:03:14;8.60;;;4.80;;
4563;SDS011;2294;51.818;8.484;2024-01-10T01:05:41;9.60;;;3.93;;
4563;SDS011;2294;51.818;8.484;2024-01-10T01:08:09;9.73;;;3.80;;
4563;SDS011;2294;51.818;8.484;2024-01-10T01:10:36;10.83;;;4.97;;
4563;SDS011;2294;51.818;8.484;2024-01-10T01:13:04;7.00;;;4.53;;
4563;SDS011;2294;51.818;8.484;2024-01-10T01:15:32;4.50;;;3.40;;
4563;SDS011;2294;51.818;8.484;2024-01-10T01:17:59;10.80;;;4.10;;
4563;SDS011;2294;51.818;8.484;2024-01-10T01:20:26;6.93;;;4.13;;
4563;SDS011;2294;51.818;8.484;2024-01-10T01:22:53;11.83;;;4.93;;
4563;SDS011;2294;51.818;8.484;2024-01-10T01:25:20;10.10;;;4.53;;
4563;SDS011;2294;51.818;8.484;2024-01-10T01:27:47;7.80;;;3.70;;
4563;SDS011;2294;51.818;8.484;2024-01-10T01:30:16;9.33;;;4.33;;
4563;SDS011;2294;51.818;8.484;2024-01-10T01:32:43;9.23;;;4.17;;
4563;SDS011;2294;51.818;8.484;2024-01-10T01:35:10;8.00;;;4.27;;
4563;SDS011;2294;51.818;8.484;2024-01-10T01:37:37;11.57;;;5.17;;
4563;SDS011;2294;51.818;8.484;2024-01-10T01:40:05;10.53;;;4.07;;
4563;SDS011;2294;51.818;8.484;2024-01-10T01:42:32;12.87;;;4.10;;
4563;SDS011;2294;51.818;8.484;2024-01-10T01:44:59;13.37;;;5.60;;
4563;SDS011;2294;51.818;8.484;2024-01-10T01:47:28;12.90;;;5.07;;
4563;SDS011;2294;51.818;8.484;2024-01-10T01:49:56;8.10;;;4.47;;
4563;SDS011;2294;51.818;8.484;2024-01-10T01:52:23;5.70;;;3.60;;
4563;SDS011;2294;51.818;8.484;2024-01-10T01:54:50;9.90;;;4.40;;
4563;SDS011;2294;51.818;8.484;2024-01-10T01:57:17;9.67;;;4.70;;
4563;SDS011;2294;51.818;8.484;2024-01-10T01:59:45;8.77;;;3.97;;
4563;SDS011;2294;51.818;8.484;2024-01-10T02:02:12;10.90;;;5.30;;
4563;SDS011;2294;51.818;8.484;2024-01-10T02:04:41;9.10;;;5.20;;
4563;SDS011;2294;51.818;8.484;2024-01-10T02:07:09;10.07;;;5.60;;
4563;SDS011;2294;51.818;8.484;2024-01-10T02:09:37;6.73;;;4.40;;
4563;SDS011;2294;51.818;8.484;2024-01-10T02:12:05;11.30;;;4.13;;
4563;SDS011;2294;51.818;8.484;2024-01-10T02:14:32;16.63;;;4.43;;
4563;SDS011;2294;51.818;8.484;2024-01-10T02:16:59;12.50;;;5.70;;
4563;SDS011;2294;51.818;8.484;2024-01-10T02:19:26;14.33;;;5.10;;
4563;SDS011;2294;51.818;8.484;2024-01-10T02:21:57;6.60;;;3.97;;
4563;SDS011;2294;51.818;8.484;2024-01-10T02:24:24;10.80;;;5.50;;
4563;SDS011;2294;51.818;8.484;2024-01-10T02:26:53;11.90;;;6.00;;
4563;SDS011;2294;51.818;8.484;2024-01-10T02:29:20;10.60;;;4.53;;
4563;SDS011;2294;51.818;8.484;2024-01-10T02:31:49;9.07;;;5.00;;
4563;SDS011;2294;51.818;8.484;2024-01-10T02:34:16;8.27;;;4.40;;
4563;SDS011;2294;51.818;8.484;2024-01-10T02:36:43;18.70;;;5.00;;
4563;SDS011;2294;51.818;8.484;2024-01-10T02:39:10;13.43;;;5.23;;
4563;SDS011;2294;51.818;8.484;2024-01-10T02:41:37;8.83;;;4.77;;
4563;SDS011;2294;51.818;8.484;2024-01-10T02:44:05;8.20;;;4.97;;
4563;SDS011;2294;51.818;8.484;2024-01-10T02:46:33;12.17;;;6.30;;
4563;SDS011;2294;51.818;8.484;2024-01-10T02:49:00;5.90;;;3.60;;
4563;SDS011;2294;51.818;8.484;2024-01-10T02:51:27;11.23;;;5.03;;
4563;SDS011;2294;51.818;8.484;2024-01-10T02:53:55;6.70;;;3.83;;
4563;SDS011;2294;51.818;8.484;2024-01-10T02:56:22;10.50;;;5.63;;
4563;SDS011;2294;51.818;8.484;2024-01-10T02:58:49;10.30;;;4.77;;
4563;SDS011;2294;51.818;8.484;2024-01-10T03:01:18;10.40;;;5.50;;
4563;SDS011;2294;51.818;8.484;2024-01-10T03:03:45;7.47;;;4.60;;
4563;SDS011;2294;51.818;8.484;2024-01-10T03:06:12;13.03;;;5.20;;
4563;SDS011;2294;51.818;8.484;2024-01-10T03:08:39;10.40;;;5.63;;
4563;SDS011;2294;51.818;8.484;2024-01-10T03:11:06;7.77;;;4.37;;
4563;SDS011;2294;51.818;8.484;2024-01-10T03:13:33;14.93;;;5.60;;
4563;SDS011;2294;51.818;8.484;2024-01-10T03:16:00;11.70;;;5.07;;
4563;SDS011;2294;51.818;8.484;2024-01-10T03:18:29;14.03;;;5.37;;
4563;SDS011;2294;51.818;8.484;2024-01-10T03:20:56;10.37;;;4.10;;
4563;SDS011;2294;51.818;8.484;2024-01-10T03:23:23;8.00;;;4.00;;
4563;SDS011;2294;51.818;8.484;2024-01-10T03:25:52;8.93;;;4.57;;
4563;SDS011;2294;51.818;8.484;2024-01-10T03:28:19;9.60;;;5.03;;
4563;SDS011;2294;51.818;8.484;2024-01-10T03:30:46;24.93;;;6.57;;
4563;SDS011;2294;51.818;8.484;2024-01-10T03:33:13;12.93;;;4.20;;
4563;SDS011;2294;51.818;8.484;2024-01-10T03:35:42;9.67;;;4.93;;
4563;SDS011;2294;51.818;8.484;2024-01-10T03:38:10;6.67;;;4.17;;
4563;SDS011;2294;51.818;8.484;2024-01-10T03:40:37;9.83;;;6.03;;
4563;SDS011;2294;51.818;8.484;2024-01-10T03:43:04;21.70;;;6.03;;
4563;SDS011;2294;51.818;8.484;2024-01-10T03:45:31;14.00;;;5.87;;
4563;SDS011;2294;51.818;8.484;2024-01-10T03:47:58;18.70;;;5.77;;
4563;SDS011;2294;51.818;8.484;2024-01-10T03:50:26;7.53;;;4.23;;
4563;SDS011;2294;51.818;8.484;2024-01-10T03:52:54;14.60;;;6.17;;
4563;SDS011;2294;51.818;8.484;2024-01-10T03:55:21;11.43;;;4.40;;
4563;SDS011;2294;51.818;8.484;2024-01-10T03:57:48;16.33;;;6.67;;
4563;SDS011;2294;51.818;8.484;2024-01-10T04:00:16;14.10;;;5.80;;
4563;SDS011;2294;51.818;8.484;2024-01-10T04:02:43;14.80;;;5.90;;
4563;SDS011;2294;51.818;8.484;2024-01-10T04:05:10;11.87;;;5.43;;
4563;SDS011;2294;51.818;8.484;2024-01-10T04:07:39;10.87;;;5.80;;
4563;SDS011;2294;51.818;8.484;2024-01-10T04:10:09;10.70;;;6.40;;
4563;SDS011;2294;51.818;8.484;2024-01-10T04:12:38;13.60;;;6.13;;
4563;SDS011;2294;51.818;8.484;2024-01-10T04:15:06;21.50;;;4.97;;
4563;SDS011;2294;51.818;8.484;2024-01-10T04:17:33;11.83;;;5.33;;
4563;SDS011;2294;51.818;8.484;2024-01-10T04:20:00;12.30;;;5.53;;
4563;SDS011;2294;51.818;8.484;2024-01-10T04:22:28;10.93;;;5.30;;
4563;SDS011;2294;51.818;8.484;2024-01-10T04:24:56;13.27;;;5.50;;
4563;SDS011;2294;51.818;8.484;2024-01-10T04:27:26;12.93;;;5.20;;
4563;SDS011;2294;51.818;8.484;2024-01-10T04:29:53;9.10;;;5.13;;
4563;SDS011;2294;51.818;8.484;2024-01-10T04:32:20;15.17;;;6.40;;
4563;SDS011;2294;51.818;8.484;2024-01-10T04:34:47;13.37;;;5.13;;
4563;SDS011;2294;51.818;8.484;2024-01-10T04:37:15;15.40;;;5.77;;
4563;SDS011;2294;51.818;8.484;2024-01-10T04:39:42;13.83;;;5.53;;
4563;SDS011;2294;51.818;8.484;2024-01-10T04:42:10;21.53;;;7.00;;
4563;SDS011;2294;51.818;8.484;2024-01-10T04:44:38;9.50;;;5.17;;
4563;SDS011;2294;51.818;8.484;2024-01-10T04:47:06;10.23;;;5.60;;
4563;SDS011;2294;51.818;8.484;2024-01-10T04:49:34;16.53;;;7.90;;
4563;SDS011;2294;51.818;8.484;2024-01-10T04:52:01;14.77;;;5.20;;
4563;SDS011;2294;51.818;8.484;2024-01-10T04:54:29;13.80;;;4.83;;
4563;SDS011;2294;51.818;8.484;2024-01-10T04:56:56;13.73;;;5.10;;
4563;SDS011;2294;51.818;8.484;2024-01-10T04:59:23;14.17;;;5.60;;
4563;SDS011;2294;51.818;8.484;2024-01-10T05:01:52;17.23;;;7.40;;
4563;SDS011;2294;51.818;8.484;2024-01-10T05:04:19;15.60;;;6.53;;
4563;SDS011;2294;51.818;8.484;2024-01-10T05:06:47;15.17;;;6.60;;
4563;SDS011;2294;51.818;8.484;2024-01-10T05:09:14;16.63;;;7.67;;
4563;SDS011;2294;51.818;8.484;2024-01-10T05:11:41;10.93;;;4.93;;
4563;SDS011;2294;51.818;8.484;2024-01-10T05:14:12;24.90;;;7.03;;
4563;SDS011;2294;51.818;8.484;2024-01-10T05:16:39;21.10;;;6.13;;
4563;SDS011;2294;51.818;8.484;2024-01-10T05:19:07;14.73;;;6.07;;
4563;SDS011;2294;51.818;8.484;2024-01-10T05:21:35;13.57;;;6.90;;
4563;SDS011;2294;51.818;8.484;2024-01-10T05:24:02;14.13;;;5.90;;
4563;SDS011;2294;51.818;8.484;2024-01-10T05:26:29;18.83;;;6.70;;
4563;SDS011;2294;51.818;8.484;2024-01-10T05:28:56;17.50;;;7.03;;
4563;SDS011;2294;51.818;8.484;2024-01-10T05:31:23;20.80;;;5.67;;
4563;SDS011;2294;51.818;8.484;2024-01-10T05:33:50;13.23;;;5.53;;
4563;SDS011;2294;51.818;8.484;2024-01-10T05:36:20;17.80;;;8.20;;
4563;SDS011;2294;51.818;8.484;2024-01-10T05:38:49;13.73;;;5.90;;
4563;SDS011;2294;51.818;8.484;2024-01-10T05:41:17;11.73;;;5.57;;
4563;SDS011;2294;51.818;8.484;2024-01-10T05:43:44;12.20;;;4.50;;
4563;SDS011;2294;51.818;8.484;2024-01-10T05:46:11;15.20;;;5.93;;
4563;SDS011;2294;51.818;8.484;2024-01-10T05:48:40;14.13;;;6.50;;
4563;SDS011;2294;51.818;8.484;2024-01-10T05:51:08;16.93;;;5.90;;
4563;SDS011;2294;51.818;8.484;2024-01-10T05:53:36;14.70;;;6.73;;
4563;SDS011;2294;51.818;8.484;2024-01-10T05:56:05;11.80;;;6.20;;
4563;SDS011;2294;51.818;8.484;2024-01-10T05:58:32;11.93;;;5.50;;
4563;SDS011;2294;51.818;8.484;2024-01-10T06:01:00;9.07;;;4.40;;
4563;SDS011;2294;51.818;8.484;2024-01-10T06:03:28;9.07;;;5.70;;
4563;SDS011;2294;51.818;8.484;2024-01-10T06:05:55;11.50;;;5.57;;
4563;SDS011;2294;51.818;8.484;2024-01-10T06:08:22;16.33;;;6.70;;
4563;SDS011;2294;51.818;8.484;2024-01-10T06:10:52;12.27;;;6.20;;
4563;SDS011;2294;51.818;8.484;2024-01-10T06:13:20;16.97;;;6.70;;
4563;SDS011;2294;51.818;8.484;2024-01-10T06:15:47;15.30;;;8.00;;
4563;SDS011;2294;51.818;8.484;2024-01-10T06:18:15;14.13;;;7.50;;
4563;SDS011;2294;51.818;8.484;2024-01-10T06:20:42;13.47;;;5.70;;
4563;SDS011;2294;51.818;8.484;2024-01-10T06:23:09;13.43;;;5.93;;
4563;SDS011;2294;51.818;8.484;2024-01-10T06:25:36;11.03;;;5.47;;
4563;SDS011;2294;51.818;8.484;2024-01-10T06:28:05;18.43;;;5.93;;
4563;SDS011;2294;51.818;8.484;2024-01-10T06:30:32;16.73;;;7.50;;
4563;SDS011;2294;51.818;8.484;2024-01-10T06:33:00;16.90;;;6.97;;
4563;SDS011;2294;51.818;8.484;2024-01-10T06:35:27;16.13;;;6.43;;
4563;SDS011;2294;51.818;8.484;2024-01-10T06:37:55;15.10;;;5.63;;
4563;SDS011;2294;51.818;8.484;2024-01-10T06:40:22;9.30;;;5.67;;
4563;SDS011;2294;51.818;8.484;2024-01-10T06:42:49;17.50;;;6.20;;
4563;SDS011;2294;51.818;8.484;2024-01-10T06:45:18;19.33;;;8.93;;
4563;SDS011;2294;51.818;8.484;2024-01-10T06:47:45;16.20;;;7.53;;
4563;SDS011;2294;51.818;8.484;2024-01-10T06:50:12;12.00;;;5.67;;
4563;SDS011;2294;51.818;8.484;2024-01-10T06:52:39;19.47;;;6.43;;
4563;SDS011;2294;51.818;8.484;2024-01-10T06:55:07;12.43;;;4.97;;
4563;SDS011;2294;51.818;8.484;2024-01-10T06:57:34;23.57;;;8.70;;
4563;SDS011;2294;51.818;8.484;2024-01-10T07:00:01;18.50;;;8.40;;
4563;SDS011;2294;51.818;8.484;2024-01-10T07:02:33;22.43;;;8.00;;
4563;SDS011;2294;51.818;8.484;2024-01-10T07:05:01;15.27;;;6.93;;
4563;SDS011;2294;51.818;8.484;2024-01-10T07:07:31;11.23;;;6.20;;
4563;SDS011;2294;51.818;8.484;2024-01-10T07:10:00;34.90;;;8.33;;
4563;SDS011;2294;51.818;8.484;2024-01-10T07:12:29;20.57;;;9.37;;
4563;SDS011;2294;51.818;8.484;2024-01-10T07:14:57;19.80;;;8.40;;
4563;SDS011;2294;51.818;8.484;2024-01-10T07:17:24;16.00;;;6.70;;
4563;SDS011;2294;51.818;8.484;2024-01-10T07:19:53;17.43;;;8.33;;
4563;SDS011;2294;51.818;8.484;2024-01-10T07:22:21;16.90;;;5.97;;
4563;SDS011;2294;51.818;8.484;2024-01-10T07:24:49;15.97;;;7.27;;
4563;SDS011;2294;51.818;8.484;2024-01-10T07:27:16;10.00;;;6.10;;
4563;SDS011;2294;51.818;8.484;2024-01-10T07:29:43;17.70;;;6.70;;
4563;SDS011;2294;51.818;8.484;2024-01-10T07:32:11;10.77;;;6.17;;
4563;SDS011;2294;51.818;8.484;2024-01-10T07:34:38;21.27;;;5.63;;
4563;SDS011;2294;51.818;8.484;2024-01-10T07:37:07;9.10;;;6.00;;
4563;SDS011;2294;51.818;8.484;2024-01-10T07:39:36;13.70;;;6.93;;
4563;SDS011;2294;51.818;8.484;2024-01-10T07:42:03;18.63;;;6.27;;
4563;SDS011;2294;51.818;8.484;2024-01-10T07:44:31;14.83;;;5.50;;
4563;SDS011;2294;51.818;8.484;2024-01-10T07:46:58;12.37;;;6.20;;
4563;SDS011;2294;51.818;8.484;2024-01-10T07:49:26;15.83;;;6.50;;
4563;SDS011;2294;51.818;8.484;2024-01-10T07:51:55;17.20;;;7.30;;
4563;SDS011;2294;51.818;8.484;2024-01-10T07:54:23;17.90;;;5.87;;
4563;SDS011;2294;51.818;8.484;2024-01-10T07:56:50;15.87;;;5.40;;
4563;SDS011;2294;51.818;8.484;2024-01-10T07:59:18;13.13;;;6.40;;
4563;SDS011;2294;51.818;8.484;2024-01-10T08:01:50;10.37;;;6.03;;
4563;SDS011;2294;51.818;8.484;2024-01-10T08:04:21;25.97;;;7.37;;
4563;SDS011;2294;51.818;8.484;2024-01-10T08:06:49;15.40;;;7.97;;
4563;SDS011;2294;51.818;8.484;2024-01-10T08:09:16;16.67;;;6.20;;
4563;SDS011;2294;51.818;8.484;2024-01-10T08:11:45;19.20;;;7.50;;
4563;SDS011;2294;51.818;8.484;2024-01-10T08:14:12;11.63;;;4.83;;
4563;SDS011;2294;51.818;8.484;2024-01-10T08:16:40;11.33;;;5.47;;
4563;SDS011;2294;51.818;8.484;2024-01-10T08:19:07;16.50;;;6.73;;
4563;SDS011;2294;51.818;8.484;2024-01-10T08:21:35;21.57;;;7.67;;
4563;SDS011;2294;51.818;8.484;2024-01-10T08:24:02;17.03;;;7.70;;
4563;SDS011;2294;51.818;8.484;2024-01-10T08:26:30;22.43;;;8.17;;
4563;SDS011;2294;51.818;8.484;2024-01-10T08:28:59;16.47;;;7.20;;
4563;SDS011;2294;51.818;8.484;2024-01-10T08:31:26;13.23;;;7.90;;
4563;SDS011;2294;51.818;8.484;2024-01-10T08:33:54;14.53;;;5.90;;
4563;SDS011;2294;51.818;8.484;2024-01-10T08:36:22;17.50;;;6.57;;
4563;SDS011;2294;51.818;8.484;2024-01-10T08:38:50;16.40;;;6.87;;
4563;SDS011;2294;51.818;8.484;2024-01-10T08:41:17;17.77;;;6.80;;
4563;SDS011;2294;51.818;8.484;2024-01-10T08:43:44;25.40;;;7.27;;
4563;SDS011;2294;51.818;8.484;2024-01-10T08:46:13;16.73;;;7.00;;
4563;SDS011;2294;51.818;8.484;2024-01-10T08:48:40;12.83;;;5.93;;
4563;SDS011;2294;51.818;8.484;2024-01-10T08:51:07;13.03;;;8.33;;
4563;SDS011;2294;51.818;8.484;2024-01-10T08:53:35;13.80;;;6.73;;
4563;SDS011;2294;51.818;8.484;2024-01-10T08:56:02;15.10;;;7.70;;
4563;SDS011;2294;51.818;8.484;2024-01-10T08:58:29;13.40;;;6.53;;
4563;SDS011;2294;51.818;8.484;2024-01-10T09:00:57;15.10;;;7.53;;
4563;SDS011;2294;51.818;8.484;2024-01-10T09:03:25;19.47;;;7.33;;
4563;SDS011;2294;51.818;8.484;2024-01-10T09:05:52;17.87;;;6.90;;
4563;SDS011;2294;51.818;8.484;2024-01-10T09:08:19;17.43;;;6.87;;
4563;SDS011;2294;51.818;8.484;2024-01-10T09:10:47;16.33;;;7.57;;
4563;SDS011;2294;51.818;8.484;2024-01-10T09:13:14;16.57;;;6.83;;
4563;SDS011;2294;51.818;8.484;2024-01-10T09:15:42;13.30;;;6.90;;
4563;SDS011;2294;51.818;8.484;2024-01-10T09:18:09;12.87;;;7.00;;
4563;SDS011;2294;51.818;8.484;2024-01-10T09:20:37;16.80;;;6.67;;
4563;SDS011;2294;51.818;8.484;2024-01-10T09:23:05;15.63;;;7.23;;
4563;SDS011;2294;51.818;8.484;2024-01-10T09:25:32;16.97;;;7.93;;
4563;SDS011;2294;51.818;8.484;2024-01-10T09:27:59;24.10;;;8.80;;
4563;SDS011;2294;51.818;8.484;2024-01-10T09:30:26;14.13;;;7.93;;
4563;SDS011;2294;51.818;8.484;2024-01-10T09:32:53;13.70;;;6.83;;
4563;SDS011;2294;51.818;8.484;2024-01-10T09:35:21;12.00;;;5.80;;
4563;SDS011;2294;51.818;8.484;2024-01-10T09:37:50;13.80;;;6.13;;
4563;SDS011;2294;51.818;8.484;2024-01-10T09:40:19;18.23;;;6.10;;
4563;SDS011;2294;51.818;8.484;2024-01-10T09:42:47;14.83;;;7.20;;
4563;SDS011;2294;51.818;8.484;2024-01-10T09:45:16;32.33;;;8.90;;
4563;SDS011;2294;51.818;8.484;2024-01-10T09:47:44;14.40;;;6.80;;
4563;SDS011;2294;51.818;8.484;2024-01-10T09:50:12;18.93;;;9.67;;
4563;SDS011;2294;51.818;8.484;2024-01-10T09:52:41;19.67;;;8.33;;
4563;SDS011;2294;51.818;8.484;2024-01-10T09:55:13;23.70;;;8.97;;
4563;SDS011;2294;51.818;8.484;2024-01-10T09:57:41;13.93;;;6.93;;
4563;SDS011;2294;51.818;8.484;2024-01-10T10:00:09;19.37;;;8.43;;
4563;SDS011;2294;51.818;8.484;2024-01-10T10:02:37;20.73;;;9.87;;
4563;SDS011;2294;51.818;8.484;2024-01-10T10:05:07;19.27;;;6.90;;
4563;SDS011;2294;51.818;8.484;2024-01-10T10:07:42;12.30;;;6.10;;
4563;SDS011;2294;51.818;8.484;2024-01-10T10:10:09;11.60;;;6.40;;
4563;SDS011;2294;51.818;8.484;2024-01-10T10:12:45;20.70;;;7.80;;
4563;SDS011;2294;51.818;8.484;2024-01-10T10:15:13;17.77;;;7.30;;
4563;SDS011;2294;51.818;8.484;2024-01-10T10:17:41;17.27;;;7.13;;
4563;SDS011;2294;51.818;8.484;2024-01-10T10:20:12;18.93;;;7.77;;
4563;SDS011;2294;51.818;8.484;2024-01-10T10:22:40;14.37;;;6.77;;
4563;SDS011;2294;51.818;8.484;2024-01-10T10:25:10;16.37;;;8.00;;
4563;SDS011;2294;51.818;8.484;2024-01-10T10:27:38;13.47;;;6.50;;
4563;SDS011;2294;51.818;8.484;2024-01-10T10:30:07;12.77;;;4.87;;
4563;SDS011;2294;51.818;8.484;2024-01-10T10:32:35;8.57;;;3.97;;
4563;SDS011;2294;51.818;8.484;2024-01-10T10:35:02;14.30;;;7.93;;
4563;SDS011;2294;51.818;8.484;2024-01-10T10:37:30;23.03;;;8.53;;
4563;SDS011;2294;51.818;8.484;2024-01-10T10:39:57;15.47;;;8.47;;
4563;SDS011;2294;51.818;8.484;2024-01-10T10:42:24;17.27;;;8.97;;
4563;SDS011;2294;51.818;8.484;2024-01-10T10:44:52;19.37;;;6.67;;
4563;SDS011;2294;51.818;8.484;2024-01-10T10:47:23;20.30;;;7.97;;
4563;SDS011;2294;51.818;8.484;2024-01-10T10:49:53;17.37;;;7.50;;
4563;SDS011;2294;51.818;8.484;2024-01-10T10:52:21;12.97;;;5.77;;
4563;SDS011;2294;51.818;8.484;2024-01-10T10:54:49;15.17;;;6.47;;
4563;SDS011;2294;51.818;8.484;2024-01-10T10:57:20;19.07;;;7.13;;
4563;SDS011;2294;51.818;8.484;2024-01-10T10:59:48;15.43;;;6.50;;
4563;SDS011;2294;51.818;8.484;2024-01-10T11:02:18;16.23;;;5.57;;
4563;SDS011;2294;51.818;8.484;2024-01-10T11:04:49;25.00;;;7.73;;
4563;SDS011;2294;51.818;8.484;2024-01-10T11:07:17;16.27;;;6.73;;
4563;SDS011;2294;51.818;8.484;2024-01-10T11:09:45;18.43;;;6.70;;
4563;SDS011;2294;51.818;8.484;2024-01-10T11:12:16;23.60;;;9.07;;
4563;SDS011;2294;51.818;8.484;2024-01-10T11:14:52;16.00;;;8.10;;
4563;SDS011;2294;51.818;8.484;2024-01-10T11:20:30;15.33;;;7.00;;
4563;SDS011;2294;51.818;8.484;2024-01-10T11:23:08;11.33;;;5.60;;
4563;SDS011;2294;51.818;8.484;2024-01-10T11:25:40;24.73;;;9.00;;
4563;SDS011;2294;51.818;8.484;2024-01-10T11:28:07;16.07;;;6.67;;
4563;SDS011;2294;51.818;8.484;2024-01-10T11:30:34;21.13;;;6.80;;
4563;SDS011;2294;51.818;8.484;2024-01-10T11:33:15;18.07;;;7.37;;
4563;SDS011;2294;51.818;8.484;2024-01-10T11:35:59;25.90;;;6.80;;
4563;SDS011;2294;51.818;8.484;2024-01-10T11:38:32;11.93;;;5.93;;
4563;SDS011;2294;51.818;8.484;2024-01-10T11:40:59;13.77;;;6.03;;
4563;SDS011;2294;51.818;8.484;2024-01-10T11:43:27;15.53;;;6.57;;
4563;SDS011;2294;51.818;8.484;2024-01-10T11:45:55;12.40;;;5.50;;
4563;SDS011;2294;51.818;8.484;2024-01-10T11:48:25;11.73;;;5.90;;
4563;SDS011;2294;51.818;8.484;2024-01-10T11:50:53;10.90;;;5.67;;
4563;SDS011;2294;51.818;8.484;2024-01-10T11:53:41;10.17;;;5.27;;
4563;SDS011;2294;51.818;8.484;2024-01-10T11:56:11;10.30;;;5.80;;
4563;SDS011;2294;51.818;8.484;2024-01-10T11:58:52;10.03;;;6.17;;
4563;SDS011;2294;51.818;8.484;2024-01-10T12:01:20;11.83;;;5.57;;
4563;SDS011;2294;51.818;8.484;2024-01-10T12:03:47;13.87;;;7.03;;
4563;SDS011;2294;51.818;8.484;2024-01-10T12:06:17;12.77;;;6.17;;
4563;SDS011;2294;51.818;8.484;2024-01-10T12:08:46;11.87;;;5.50;;
4563;SDS011;2294;51.818;8.484;2024-01-10T12:11:13;24.20;;;7.43;;
4563;SDS011;2294;51.818;8.484;2024-01-10T12:13:40;22.20;;;8.03;;
4563;SDS011;2294;51.818;8.484;2024-01-10T12:16:08;21.67;;;8.47;;
4563;SDS011;2294;51.818;8.484;2024-01-10T12:18:35;17.63;;;6.13;;
4563;SDS011;2294;51.818;8.484;2024-01-10T12:21:02;8.70;;;4.67;;
4563;SDS011;2294;51.818;8.484;2024-01-10T12:23:29;22.80;;;7.20;;
4563;SDS011;2294;51.818;8.484;2024-01-10T12:25:58;12.53;;;5.90;;
4563;SDS011;2294;51.818;8.484;2024-01-10T12:28:28;12.37;;;6.50;;
4563;SDS011;2294;51.818;8.484;2024-01-10T12:30:55;11.57;;;5.57;;
4563;SDS011;2294;51.818;8.484;2024-01-10T12:33:23;14.00;;;5.93;;
4563;SDS011;2294;51.818;8.484;2024-01-10T12:36:06;11.90;;;5.30;;
4563;SDS011;2294;51.818;8.484;2024-01-10T12:38:34;12.20;;;5.30;;
4563;SDS011;2294;51.818;8.484;2024-01-10T12:41:03;9.60;;;5.13;;
4563;SDS011;2294;51.818;8.484;2024-01-10T12:43:30;14.77;;;5.17;;
4563;SDS011;2294;51.818;8.484;2024-01-10T12:46:04;11.40;;;5.67;;
4563;SDS011;2294;51.818;8.484;2024-01-10T12:48:32;11.03;;;5.90;;
4563;SDS011;2294;51.818;8.484;2024-01-10T12:51:01;11.20;;;5.30;;
4563;SDS011;2294;51.818;8.484;2024-01-10T12:53:31;12.60;;;6.10;;
4563;SDS011;2294;51.818;8.484;2024-01-10T12:55:58;13.37;;;5.57;;
4563;SDS011;2294;51.818;8.484;2024-01-10T12:58:27;14.80;;;6.10;;
4563;SDS011;2294;51.818;8.484;2024-01-10T13:00:54;13.97;;;5.80;;
4563;SDS011;2294;51.818;8.484;2024-01-10T13:03:21;7.67;;;4.07;;
4563;SDS011;2294;51.818;8.484;2024-01-10T13:05:49;14.37;;;4.90;;
4563;SDS011;2294;51.818;8.484;2024-01-10T13:08:16;10.07;;;5.43;;
4563;SDS011;2294;51.818;8.484;2024-01-10T13:10:44;11.70;;;5.20;;
4563;SDS011;2294;51.818;8.484;2024-01-10T13:13:12;11.80;;;5.63;;
4563;SDS011;2294;51.818;8.484;2024-01-10T13:15:41;8.27;;;4.63;;
4563;SDS011;2294;51.818;8.484;2024-01-10T13:18:08;12.20;;;5.23;;
4563;SDS011;2294;51.818;8.484;2024-01-10T13:20:36;9.57;;;4.57;;
4563;SDS011;2294;51.818;8.484;2024-01-10T13:23:03;10.17;;;4.70;;
4563;SDS011;2294;51.818;8.484;2024-01-10T13:25:30;10.60;;;5.00;;
4563;SDS011;2294;51.818;8.484;2024-01-10T13:27:59;14.43;;;5.77;;
4563;SDS011;2294;51.818;8.484;2024-01-10T13:30:26;13.97;;;5.43;;
4563;SDS011;2294;51.818;8.484;2024-01-10T13:32:55;12.87;;;6.80;;
4563;SDS011;2294;51.818;8.484;2024-01-10T13:35:23;24.77;;;10.77;;
4563;SDS011;2294;51.818;8.484;2024-01-10T13:37:50;29.33;;;11.00;;
4563;SDS011;2294;51.818;8.484;2024-01-10T13:40:17;12.70;;;6.20;;
4563;SDS011;2294;51.818;8.484;2024-01-10T13:42:48;14.07;;;5.63;;
4563;SDS011;2294;51.818;8.484;2024-01-10T13:45:16;16.00;;;5.87;;
4563;SDS011;2294;51.818;8.484;2024-01-10T13:47:43;11.43;;;6.20;;
4563;SDS011;2294;51.818;8.484;2024-01-10T13:50:12;11.90;;;4.87;;
4563;SDS011;2294;51.818;8.484;2024-01-10T13:52:39;12.10;;;5.87;;
4563;SDS011;2294;51.818;8.484;2024-01-10T13:55:07;16.23;;;5.80;;
4563;SDS011;2294;51.818;8.484;2024-01-10T13:57:34;15.03;;;6.80;;
4563;SDS011;2294;51.818;8.484;2024-01-10T14:00:02;14.97;;;6.20;;
4563;SDS011;2294;51.818;8.484;2024-01-10T14:02:31;14.80;;;5.93;;
4563;SDS011;2294;51.818;8.484;2024-01-10T14:05:00;14.53;;;5.40;;
4563;SDS011;2294;51.818;8.484;2024-01-10T14:07:32;10.43;;;5.23;;
4563;SDS011;2294;51.818;8.484;2024-01-10T14:09:59;12.77;;;6.40;;
4563;SDS011;2294;51.818;8.484;2024-01-10T14:12:27;15.80;;;6.07;;
4563;SDS011;2294;51.818;8.484;2024-01-10T14:14:55;12.07;;;5.40;;
4563;SDS011;2294;51.818;8.484;2024-01-10T14:17:22;10.97;;;5.50;;
4563;SDS011;2294;51.818;8.484;2024-01-10T14:19:50;10.13;;;5.20;;
4563;SDS011;2294;51.818;8.484;2024-01-10T14:22:18;15.30;;;5.83;;
4563;SDS011;2294;51.818;8.484;2024-01-10T14:24:46;14.17;;;5.83;;
4563;SDS011;2294;51.818;8.484;2024-01-10T14:27:14;10.50;;;5.93;;
4563;SDS011;2294;51.818;8.484;2024-01-10T14:29:41;13.27;;;5.90;;
4563;SDS011;2294;51.818;8.484;2024-01-10T14:32:08;12.60;;;5.93;;
4563;SDS011;2294;51.818;8.484;2024-01-10T14:34:38;12.43;;;5.63;;
4563;SDS011;2294;51.818;8.484;2024-01-10T14:37:05;13.37;;;5.70;;
4563;SDS011;2294;51.818;8.484;2024-01-10T14:39:33;15.63;;;7.10;;
4563;SDS011;2294;51.818;8.484;2024-01-10T14:42:05;14.90;;;7.33;;
4563;SDS011;2294;51.818;8.484;2024-01-10T14:44:33;20.90;;;8.80;;
4563;SDS011;2294;51.818;8.484;2024-01-10T14:47:01;19.40;;;8.07;;
4563;SDS011;2294;51.818;8.484;2024-01-10T14:49:28;18.63;;;8.47;;
4563;SDS011;2294;51.818;8.484;2024-01-10T14:51:56;15.30;;;7.50;;
4563;SDS011;2294;51.818;8.484;2024-01-10T14:54:23;17.27;;;7.90;;
4563;SDS011;2294;51.818;8.484;2024-01-10T14:56:50;22.70;;;8.93;;
4563;SDS011;2294;51.818;8.484;2024-01-10T14:59:19;25.20;;;8.17;;
4563;SDS011;2294;51.818;8.484;2024-01-10T15:01:46;29.50;;;10.30;;
4563;SDS011;2294;51.818;8.484;2024-01-10T15:04:13;21.80;;;9.83;;
4563;SDS011;2294;51.818;8.484;2024-01-10T15:06:44;15.63;;;6.80;;
4563;SDS011;2294;51.818;8.484;2024-01-10T15:09:11;21.30;;;9.27;;
4563;SDS011;2294;51.818;8.484;2024-01-10T15:11:39;27.20;;;9.60;;